createdAt,value
2023-05-13T00:01:59.144Z,6.50
2023-05-13T00:04:42.664Z,6.50
2023-05-13T00:07:23.507Z,6.10
2023-05-13T00:10:09.763Z,5.80
2023-05-13T00:12:48.687Z,5.90
2023-05-13T00:15:27.436Z,6.10
2023-05-13T00:18:12.378Z,5.60
2023-05-13T00:20:52.278Z,6.30
2023-05-13T00:23:25.524Z,6.10
2023-05-13T00:26:26.523Z,6.00
2023-05-13T00:29:33.663Z,6.10
2023-05-13T00:32:23.816Z,6.10
2023-05-13T00:35:41.851Z,5.40
2023-05-13T00:38:53.992Z,5.80
2023-05-13T00:42:01.571Z,5.70
2023-05-13T00:44:50.505Z,5.60
2023-05-13T00:47:29.319Z,6.10
2023-05-13T00:50:00.709Z,6.40
2023-05-13T00:52:53.706Z,6.40
2023-05-13T00:55:40.703Z,6.10
2023-05-13T00:58:45.590Z,6.20
2023-05-13T01:01:46.202Z,6.30
2023-05-13T01:05:04.212Z,7.30
2023-05-13T01:08:06.628Z,7.10
2023-05-13T01:11:11.600Z,6.40
2023-05-13T01:13:58.694Z,6.20
2023-05-13T01:17:05.354Z,6.80
2023-05-13T01:20:15.089Z,6.30
2023-05-13T01:22:47.331Z,5.90
2023-05-13T01:25:22.907Z,6.30
2023-05-13T01:28:14.700Z,6.90
2023-05-13T01:31:08.887Z,6.60
2023-05-13T01:33:47.685Z,5.20
2023-05-13T01:36:19.358Z,5.20
2023-05-13T01:39:15.259Z,5.30
2023-05-13T01:41:44.924Z,4.70
2023-05-13T01:44:13.432Z,5.00
2023-05-13T01:46:57.865Z,5.20
2023-05-13T01:49:41.503Z,4.70
2023-05-13T01:52:18.152Z,6.50
2023-05-13T01:55:12.321Z,5.10
2023-05-13T02:01:03.675Z,6.20
2023-05-13T02:03:55.620Z,6.20
2023-05-13T02:06:57.041Z,6.50
2023-05-13T02:09:59.995Z,7.20
2023-05-13T02:13:44.293Z,7.00
2023-05-13T02:17:37.107Z,6.00
2023-05-13T02:20:16.141Z,6.80
2023-05-13T02:22:47.839Z,6.40
2023-05-13T02:25:21.920Z,6.80
2023-05-13T02:28:05.481Z,6.50
2023-05-13T02:30:57.656Z,6.50
2023-05-13T02:34:09.835Z,6.50
2023-05-13T02:39:30.013Z,5.60
2023-05-13T02:42:37.607Z,4.70
2023-05-13T02:45:44.888Z,5.60
2023-05-13T02:48:38.749Z,5.70
2023-05-13T02:51:24.037Z,5.40
2023-05-13T02:54:04.940Z,6.00
2023-05-13T02:57:10.912Z,5.30
2023-05-13T02:59:56.304Z,5.30
2023-05-13T03:02:37.869Z,5.60
2023-05-13T03:05:07.470Z,5.10
2023-05-13T03:07:50.388Z,6.20
2023-05-13T03:10:39.658Z,5.30
2023-05-13T03:13:18.702Z,4.80
2023-05-13T03:16:16.014Z,5.50
2023-05-13T03:19:24.228Z,5.20
2023-05-13T03:22:39.972Z,6.60
2023-05-13T03:25:27.565Z,5.90
2023-05-13T03:28:37.055Z,5.90
2023-05-13T03:31:43.955Z,5.70
2023-05-13T03:34:31.605Z,6.10
2023-05-13T03:37:35.944Z,6.70
2023-05-13T03:40:23.914Z,5.90
2023-05-13T03:43:36.258Z,6.70
2023-05-13T03:46:34.846Z,6.50
2023-05-13T03:49:12.156Z,5.90
2023-05-13T03:51:48.938Z,5.70
2023-05-13T03:55:11.741Z,5.20
2023-05-13T03:58:32.178Z,5.70
2023-05-13T04:01:32.119Z,5.50
2023-05-13T04:04:48.560Z,5.50
2023-05-13T04:07:59.189Z,5.80
2023-05-13T04:11:08.889Z,5.80
2023-05-13T04:13:40.520Z,5.90
2023-05-13T04:16:22.656Z,5.50
2023-05-13T04:19:11.377Z,5.60
2023-05-13T04:22:26.567Z,5.90
2023-05-13T04:25:33.021Z,5.40
2023-05-13T04:28:07.500Z,6.40
2023-05-13T04:31:05.437Z,6.30
2023-05-13T04:34:15.201Z,6.60
2023-05-13T04:37:19.197Z,6.00
2023-05-13T04:41:08.690Z,6.20
2023-05-13T04:43:58.998Z,6.40
2023-05-13T04:47:25.128Z,6.30
2023-05-13T04:50:04.872Z,7.80
2023-05-13T04:52:47.260Z,7.00
2023-05-13T04:57:56.409Z,7.50
2023-05-13T05:01:40.220Z,7.20
2023-05-13T05:05:34.575Z,7.50
2023-05-13T05:09:34.112Z,7.20
2023-05-13T05:13:03.545Z,7.40
2023-05-13T05:16:55.073Z,7.50
2023-05-13T05:20:07.097Z,6.90
2023-05-13T05:23:15.427Z,7.50
2023-05-13T05:26:52.167Z,7.40
2023-05-13T05:30:34.536Z,7.10
2023-05-13T05:34:33.981Z,7.70
2023-05-13T05:38:21.974Z,8.20
2023-05-13T05:41:45.956Z,7.50
2023-05-13T05:45:21.370Z,7.20
2023-05-13T05:48:12.967Z,6.90
2023-05-13T05:51:57.571Z,6.70
2023-05-13T05:55:45.475Z,7.20
2023-05-13T05:59:31.507Z,6.40
2023-05-13T06:03:41.064Z,6.70
2023-05-13T06:07:11.521Z,6.50
2023-05-13T06:10:23.822Z,6.90
2023-05-13T06:13:23.928Z,6.30
2023-05-13T06:17:13.211Z,6.50
2023-05-13T06:20:22.566Z,5.80
2023-05-13T06:24:32.526Z,6.70
2023-05-13T06:28:41.944Z,6.20
2023-05-13T06:33:00.868Z,6.80
2023-05-13T06:36:54.957Z,6.80
2023-05-13T06:40:27.050Z,6.90
2023-05-13T06:43:58.104Z,7.20
2023-05-13T06:48:07.800Z,7.20
2023-05-13T06:52:17.056Z,6.40
2023-05-13T06:55:41.541Z,7.40
2023-05-13T06:59:14.128Z,7.10
2023-05-13T07:02:15.936Z,7.00
2023-05-13T07:04:50.744Z,6.90
2023-05-13T07:07:57.120Z,7.30
2023-05-13T07:11:28.945Z,7.00
2023-05-13T07:15:38.489Z,7.30
2023-05-13T07:19:47.596Z,7.00
2023-05-13T07:23:27.278Z,6.30
2023-05-13T07:27:12.599Z,7.10
2023-05-13T07:31:04.715Z,7.20
2023-05-13T07:34:55.989Z,7.00
2023-05-13T07:38:14.040Z,6.60
2023-05-13T07:42:08.960Z,5.90
2023-05-13T07:46:01.308Z,7.10
2023-05-13T07:50:10.687Z,6.60
2023-05-13T07:54:06.365Z,6.00
2023-05-13T07:57:29.370Z,6.30
2023-05-13T08:00:45.581Z,6.90
2023-05-13T08:04:00.297Z,6.80
2023-05-13T08:07:15.605Z,7.50
2023-05-13T08:09:56.687Z,7.20
2023-05-13T08:13:05.540Z,7.20
2023-05-13T08:16:16.627Z,7.10
2023-05-13T08:18:53.432Z,6.20
2023-05-13T08:21:32.753Z,7.70
2023-05-13T08:24:20.602Z,6.90
2023-05-13T08:26:55.343Z,6.10
2023-05-13T08:29:57.533Z,6.10
2023-05-13T08:32:48.628Z,5.70
2023-05-13T08:35:26.658Z,5.70
2023-05-13T08:38:06.623Z,5.10
2023-05-13T08:41:18.563Z,4.80
2023-05-13T08:43:49.918Z,4.50
2023-05-13T08:46:21.640Z,4.60
2023-05-13T08:48:57.225Z,4.80
2023-05-13T08:51:52.018Z,4.30
2023-05-13T08:54:49.847Z,4.10
2023-05-13T08:58:03.681Z,3.90
2023-05-13T09:01:34.436Z,3.30
2023-05-13T09:05:05.224Z,3.70
2023-05-13T09:08:39.701Z,4.00
2023-05-13T09:12:17.410Z,4.20
2023-05-13T09:15:57.430Z,3.60
2023-05-13T09:19:15.945Z,4.30
2023-05-13T09:22:24.389Z,4.40
2023-05-13T09:25:38.933Z,4.60
2023-05-13T09:30:03.155Z,5.10
2023-05-13T09:36:21.183Z,4.60
2023-05-13T09:39:50.430Z,4.70
2023-05-13T09:43:15.708Z,4.70
2023-05-13T09:47:04.726Z,5.70
2023-05-13T09:50:42.652Z,5.40
2023-05-13T09:54:47.846Z,5.20
2023-05-13T09:57:39.892Z,5.20
2023-05-13T10:00:32.198Z,4.90
2023-05-13T10:03:48.346Z,4.90
2023-05-13T10:10:16.831Z,4.50
2023-05-13T10:13:57.976Z,5.10
2023-05-13T10:17:46.135Z,5.10
2023-05-13T10:21:27.741Z,4.30
2023-05-13T10:25:10.307Z,4.30
2023-05-13T10:28:52.579Z,5.10
2023-05-13T10:32:38.788Z,4.70
2023-05-13T10:36:19.215Z,4.20
2023-05-13T10:39:54.999Z,4.40
2023-05-13T10:43:34.596Z,4.20
2023-05-13T10:46:42.415Z,3.80
2023-05-13T10:49:57.664Z,4.40
2023-05-13T10:53:25.192Z,3.70
2023-05-13T10:56:09.352Z,3.30
2023-05-13T10:59:24.140Z,3.50
2023-05-13T11:02:31.820Z,3.40
2023-05-13T11:06:10.036Z,3.60
2023-05-13T11:09:32.214Z,3.10
2023-05-13T11:12:51.662Z,3.70
2023-05-13T11:16:19.394Z,3.50
2023-05-13T11:19:10.663Z,3.30
2023-05-13T11:22:37.030Z,3.30
2023-05-13T11:26:19.456Z,3.70
2023-05-13T11:29:58.429Z,3.10
2023-05-13T11:33:13.819Z,2.90
2023-05-13T11:35:58.635Z,2.90
2023-05-13T11:38:41.000Z,3.10
2023-05-13T11:42:05.160Z,3.10
2023-05-13T11:44:56.850Z,3.40
2023-05-13T11:48:07.670Z,3.20
2023-05-13T11:51:09.203Z,2.70
2023-05-13T11:53:53.534Z,3.50
2023-05-13T11:56:51.800Z,3.20
2023-05-13T12:00:17.071Z,3.00
2023-05-13T12:04:01.381Z,3.30
2023-05-13T12:07:53.462Z,3.70
2023-05-13T12:11:26.349Z,3.50
2023-05-13T12:15:03.772Z,3.20
2023-05-13T12:18:13.096Z,3.60
2023-05-13T12:21:52.086Z,2.80
2023-05-13T12:25:12.821Z,3.30
2023-05-13T12:29:02.202Z,3.40
2023-05-13T12:32:57.218Z,3.50
2023-05-13T12:35:46.181Z,3.30
2023-05-13T12:38:25.129Z,4.10
2023-05-13T12:41:13.443Z,3.40
2023-05-13T12:43:42.175Z,3.90
2023-05-13T12:46:20.294Z,3.70
2023-05-13T12:48:56.332Z,4.00
2023-05-13T12:51:33.855Z,3.00
2023-05-13T12:54:02.792Z,3.40
2023-05-13T12:56:34.595Z,3.20
2023-05-13T12:59:25.411Z,3.40
2023-05-13T13:02:01.355Z,3.80
2023-05-13T13:04:32.702Z,3.30
2023-05-13T13:07:14.808Z,3.80
2023-05-13T13:09:57.157Z,3.30
2023-05-13T13:12:49.628Z,3.60
2023-05-13T13:15:21.320Z,3.10
2023-05-13T13:18:01.705Z,3.70
2023-05-13T13:20:30.257Z,3.90
2023-05-13T13:23:03.225Z,3.30
2023-05-13T13:25:33.068Z,4.30
2023-05-13T13:28:04.673Z,3.80
2023-05-13T13:31:08.109Z,3.10
2023-05-13T13:33:57.320Z,3.50
2023-05-13T13:36:43.274Z,3.60
2023-05-13T13:40:32.659Z,2.80
2023-05-13T13:43:18.406Z,3.30
2023-05-13T13:46:30.507Z,3.00
2023-05-13T13:49:51.762Z,4.10
2023-05-13T13:52:28.015Z,3.40
2023-05-13T13:55:32.120Z,3.60
2023-05-13T14:00:57.554Z,2.90
2023-05-13T14:04:22.788Z,3.10
2023-05-13T14:07:55.697Z,2.80
2023-05-13T14:11:04.480Z,3.00
2023-05-13T14:15:02.901Z,2.80
2023-05-13T14:18:59.843Z,2.90
2023-05-13T14:22:19.089Z,2.70
2023-05-13T14:25:54.615Z,3.50
2023-05-13T14:29:05.440Z,3.00
2023-05-13T14:32:53.727Z,3.00
2023-05-13T14:36:17.873Z,3.40
2023-05-13T14:39:37.118Z,3.20
2023-05-13T14:42:33.366Z,3.00
2023-05-13T14:46:01.510Z,3.50
2023-05-13T14:49:30.609Z,2.90
2023-05-13T14:52:39.320Z,3.30
2023-05-13T14:55:45.508Z,3.30
2023-05-13T14:59:08.915Z,3.10
2023-05-13T15:02:26.286Z,2.80
2023-05-13T15:05:27.249Z,3.50
2023-05-13T15:09:06.497Z,3.10
2023-05-13T15:11:59.065Z,3.10
2023-05-13T15:14:39.514Z,2.80
2023-05-13T15:21:07.299Z,6.60
2023-05-13T15:24:39.294Z,6.90
2023-05-13T15:28:28.550Z,5.90
2023-05-13T15:31:48.970Z,6.20
2023-05-13T15:35:37.664Z,5.60
2023-05-13T15:39:22.647Z,4.90
2023-05-13T15:43:14.158Z,4.60
2023-05-13T15:46:49.639Z,4.50
2023-05-13T15:50:28.098Z,4.10
2023-05-13T15:54:37.788Z,3.70
2023-05-13T15:58:43.022Z,4.50
2023-05-13T16:01:39.417Z,4.50
2023-05-13T16:05:13.302Z,3.90
2023-05-13T16:08:56.408Z,3.50
2023-05-13T16:12:37.952Z,3.30
2023-05-13T16:16:31.422Z,3.40
2023-05-13T16:20:29.942Z,3.60
2023-05-13T16:24:20.344Z,2.90
2023-05-13T16:27:48.028Z,4.10
2023-05-13T16:30:26.045Z,2.90
2023-05-13T16:33:18.313Z,3.00
2023-05-13T16:35:46.657Z,2.70
2023-05-13T16:41:07.991Z,3.40
2023-05-13T16:43:51.133Z,2.70
2023-05-13T16:47:15.446Z,3.00
2023-05-13T16:50:46.242Z,2.90
2023-05-13T16:54:09.985Z,3.00
2023-05-13T16:57:06.856Z,2.70
2023-05-13T16:59:54.584Z,2.90
2023-05-13T17:02:26.560Z,2.80
2023-05-13T17:04:55.521Z,2.50
2023-05-13T17:07:37.925Z,2.90
2023-05-13T17:10:54.672Z,2.80
2023-05-13T17:13:29.120Z,2.90
2023-05-13T17:17:10.253Z,3.20
2023-05-13T17:20:06.733Z,2.80
2023-05-13T17:23:18.056Z,3.10
2023-05-13T17:26:00.109Z,2.70
2023-05-13T17:28:59.554Z,2.90
2023-05-13T17:31:37.326Z,2.70
2023-05-13T17:34:14.470Z,2.70
2023-05-13T17:36:47.357Z,2.60
2023-05-13T17:39:17.103Z,2.60
2023-05-13T17:42:00.897Z,3.20
2023-05-13T17:44:44.440Z,2.80
2023-05-13T17:47:15.448Z,3.40
2023-05-13T17:49:46.024Z,2.80
2023-05-13T17:52:23.885Z,3.00
2023-05-13T17:55:28.340Z,2.80
2023-05-13T17:58:37.728Z,2.80
2023-05-13T18:01:09.162Z,3.00
2023-05-13T18:04:06.829Z,3.10
2023-05-13T18:06:35.763Z,3.20
2023-05-13T18:09:20.311Z,2.80
2023-05-13T18:12:25.451Z,3.00
2023-05-13T18:15:14.167Z,3.20
2023-05-13T18:18:05.744Z,3.00
2023-05-13T18:23:14.723Z,3.20
2023-05-13T18:26:08.786Z,3.60
2023-05-13T18:28:55.592Z,2.50
2023-05-13T18:31:30.218Z,2.70
2023-05-13T18:34:09.976Z,2.90
2023-05-13T18:37:21.813Z,3.10
2023-05-13T18:41:25.044Z,2.80
2023-05-13T18:44:40.242Z,3.50
2023-05-13T18:48:12.796Z,2.50
2023-05-13T18:51:34.296Z,2.60
2023-05-13T18:54:48.539Z,2.80
2023-05-13T18:57:53.436Z,2.70
2023-05-13T19:01:31.746Z,3.30
2023-05-13T19:04:33.485Z,3.20
2023-05-13T19:08:13.923Z,3.50
2023-05-13T19:10:56.526Z,3.60
2023-05-13T19:14:30.227Z,3.30
2023-05-13T19:18:19.417Z,2.90
2023-05-13T19:21:34.552Z,3.40
2023-05-13T19:24:53.009Z,3.20
2023-05-13T19:28:08.891Z,3.70
2023-05-13T19:31:13.430Z,3.30
2023-05-13T19:34:49.628Z,3.60
2023-05-13T19:38:47.964Z,3.60
2023-05-13T19:42:29.886Z,4.30
2023-05-13T19:46:31.728Z,3.50
2023-05-13T19:50:34.022Z,4.40
2023-05-13T19:53:26.320Z,4.30
2023-05-13T19:56:43.829Z,6.80
2023-05-13T19:59:36.244Z,5.70
2023-05-13T20:03:34.367Z,4.90
2023-05-13T20:06:49.134Z,4.20
2023-05-13T20:10:26.837Z,3.80
2023-05-13T20:14:07.589Z,4.00
2023-05-13T20:16:46.812Z,4.20
2023-05-13T20:20:05.538Z,4.40
2023-05-13T20:24:12.644Z,4.90
2023-05-13T20:27:54.338Z,4.80
2023-05-13T20:31:53.188Z,5.40
2023-05-13T20:35:42.323Z,4.60
2023-05-13T20:38:48.095Z,5.10
2023-05-13T20:42:16.330Z,5.00
2023-05-13T20:46:14.618Z,5.40
2023-05-13T20:48:56.348Z,5.20
2023-05-13T20:52:20.972Z,6.20
2023-05-13T20:55:52.898Z,5.30
2023-05-13T20:58:35.054Z,5.20
2023-05-13T21:01:59.165Z,4.80
2023-05-13T21:05:07.494Z,4.60
2023-05-13T21:07:58.826Z,5.90
2023-05-13T21:11:02.131Z,5.20
2023-05-13T21:14:31.362Z,5.10
2023-05-13T21:17:51.084Z,5.20
2023-05-13T21:21:00.284Z,5.40
2023-05-13T21:23:46.063Z,4.70
2023-05-13T21:27:35.566Z,4.40
2023-05-13T21:31:03.418Z,4.30
2023-05-13T21:34:48.582Z,3.60
2023-05-13T21:38:58.228Z,4.10
2023-05-13T21:41:31.575Z,4.10
2023-05-13T21:44:48.217Z,4.90
2023-05-13T21:47:37.831Z,4.20
2023-05-13T21:51:45.877Z,4.40
2023-05-13T21:55:39.281Z,5.10
2023-05-13T21:58:21.786Z,12.70
2023-05-13T22:01:12.364Z,5.80
2023-05-13T22:04:26.359Z,5.00
2023-05-13T22:08:26.208Z,4.20
2023-05-13T22:12:34.389Z,4.70
2023-05-13T22:16:29.385Z,4.50
2023-05-13T22:20:21.323Z,4.30
2023-05-13T22:24:09.765Z,4.90
2023-05-13T22:27:56.810Z,4.80
2023-05-13T22:31:39.721Z,5.30
2023-05-13T22:35:17.528Z,4.80
2023-05-13T22:39:27.047Z,5.00
2023-05-13T22:43:13.428Z,4.70
2023-05-13T22:46:54.629Z,3.40
2023-05-13T22:51:04.189Z,4.10
2023-05-13T22:54:39.219Z,4.50
2023-05-13T22:57:41.322Z,4.20
2023-05-13T23:01:53.744Z,4.40
2023-05-13T23:05:33.385Z,4.80
2023-05-13T23:09:25.969Z,4.90
2023-05-13T23:13:03.769Z,4.20
2023-05-13T23:16:24.502Z,4.60
2023-05-13T23:20:06.030Z,4.60
2023-05-13T23:24:07.320Z,4.30
2023-05-13T23:27:01.454Z,4.70
2023-05-13T23:30:51.427Z,4.40
2023-05-13T23:34:33.740Z,4.40
2023-05-13T23:38:35.886Z,4.30
2023-05-13T23:41:54.120Z,4.00
2023-05-13T23:45:33.277Z,4.90
2023-05-13T23:52:01.205Z,3.90
2023-05-13T23:56:02.134Z,4.80
